Statenville, Georgia
Current Conditions -  °F | °C
As of 12:53 PM on Sunday 21 Dec 2014 (Local Time) from KVLD Reporting Station
Overcast Overcast  
Wind Chill: 55°   Ceiling: 600
Heat Index: 55°   Visibility: 10mi
Dew Point: 54°   Wind: 9mph
Humidity: 96%   Direction: 80°E
Pressure: 30.08"   Gusts: NA
Location:  30.7°N, 83.03°W
Report Text: KVLD 211753Z 08008KT 10SM OVC006 13/12 A3008 RMK AO2 RAB1659E13B38E48 PRESFR SLP192 P0001 60002 T01280122 10128 20122 58022
Loading
Personal Weather Stations






























Interactive Weather Map New forecast layout! Learn more

10-Day Weather Forecast

Advertisements
Track Severe Weather on mobile